Metar Cercanos

 

LEPA - Palma De Mallorc, Spain
Distance from station: ONO 38km
Actualización: Sun, 25-Jul-2021 11:30pm CEST
Few Clouds
Few Clouds
 Viento del ENE
Viento: ENE 11 km/h
Temperatura: 25°C
Rocío: 20°C
Humedad: 74%
Barómetro: 1010 hPa
Clouds: Few Clouds
Visibility: 10 km
Cloud details: Few Clouds 732 m
2021/07/25 21:30 LEPA 252130Z 07006KT 9999 FEW024 25/20 Q1010 NOSIG
LEMH - Mahon/Menorca Is, Spain
Distance from station: ENE 105km
Actualización: Sun, 25-Jul-2021 11:30pm CEST
Despejado
Despejado
 Viento del NE
Viento: NE 15 km/h
Temperatura: 24°C
Rocío: 19°C
Humedad: 74%
Barómetro: 1011 hPa
Resumen: Despejado
Visibility: greater than 10 km
2021/07/25 21:30 LEMH 252130Z 04008KT 020V080 CAVOK 24/19 Q1011
 
LEIB - Ibiza/Es Codola, Spain
Distance from station: OSO 165km
Actualización: Sun, 25-Jul-2021 11:30pm CEST
Muy nuboso
Muy nuboso
 Viento del E
Viento: E 7 km/h
Temperatura: 26°C
Rocío: 22°C
Humedad: 79%
Barómetro: 1010 hPa
Clouds: Muy nuboso
Visibility: 10 km
Cloud details: Parcialmente nuboso 488 m
Muy nuboso 579 m
2021/07/25 21:30 LEIB 252130Z 09004KT 060V120 9999 SCT016 BKN019 26/22 Q1010 NOSIG
LEBL - Barcelona Airpor, Spain
Distance from station: NNO 225km
Actualización: Sun, 25-Jul-2021 11:30pm CEST
Few Clouds
Few Clouds
 Viento del ENE
Viento: ENE 4 km/h
Temperatura: 25°C
Rocío: 18°C
Humedad: 65%
Barómetro: 1011 hPa
Clouds: Few Clouds
Visibility: 10 km
Cloud details: Few Clouds 1524 m
2021/07/25 21:30 LEBL 252130Z 06002KT 9999 FEW050 25/18 Q1011 NOSIG
 
LEVC - Valencia (civ/Mi, Spain
Distance from station: NO 188km
Actualización: Sun, 25-Jul-2021 11:30pm CEST
Muy nuboso
Muy nuboso
 Viento del NE
Viento: NE 15 km/h
Temperatura: 26°C
Rocío: 21°C
Humedad: 74%
Barómetro: 1011 hPa
Clouds: Muy nuboso
Visibility: 10 km
Cloud details: Muy nuboso 1067 m
2021/07/25 21:30 LEVC 252130Z 05008KT 020V090 9999 BKN035 26/21 Q1011 NOSIG
LEGE - Gerona/Costa Bra, Spain
Distance from station: N 276km
Actualización: Sun, 25-Jul-2021 11:30pm CEST
Few Clouds
Few Clouds
 Viento del calm
Viento: Calma
Temperatura: 22°C
Rocío: 15°C
Humedad: 65%
Barómetro: 1012 hPa
Clouds: Few Clouds
Visibility: 10 km
Cloud details: Few Clouds 1524 m
2021/07/25 21:30 LEGE 252130Z 00000KT 9999 FEW050 22/15 Q1012
 
LEAL - Alicante/El Alte, Spain
Distance from station: OSO 344km
Actualización: Sun, 25-Jul-2021 11:30pm CEST
Few Clouds
Few Clouds
 Viento del varies
Viento: varies 2 km/h
Temperatura: 26°C
Rocío: 23°C
Humedad: 84%
Barómetro: 1010 hPa
Clouds: Few Clouds
Visibility: 10 km
Cloud details: Few Clouds 305 m
2021/07/25 21:30 LEAL 252130Z VRB01KT 9999 FEW010 26/23 Q1010 NOSIG
LEAM - Almeria Airport, Spain
Distance from station: SSO 56km
Actualización: Sun, 25-Jul-2021 11:30pm CEST
Despejado
Despejado
 Viento del E
Viento: E 6 km/h
Temperatura: 24°C
Rocío: 20°C
Humedad: 78%
Barómetro: 1009 hPa
Resumen: Despejado
Visibility: greater than 10 km
2021/07/25 21:30 LEAM 252130Z AUTO 10003KT CAVOK 24/20 Q1009
 
LEZG - Zaragoza (mil/Ci, Spain
Distance from station: NO 431km
Actualización: Sun, 25-Jul-2021 11:30pm CEST
Few Clouds
Few Clouds
 Viento del ONO
Viento: ONO 31 km/h
Temperatura: 23°C
Rocío: 13°C
Humedad: 53%
Barómetro: 1012 hPa
Clouds: Few Clouds
Visibility: 10 km
Cloud details: Few Clouds 2591 m
2021/07/25 21:30 LEZG 252130Z 29017KT 9999 FEW085 23/13 Q1012
LEMD - Madrid/Barajas, Spain
Distance from station: ONO 234km
Actualización: Sun, 25-Jul-2021 11:30pm CEST
Despejado
Despejado
 Viento del NO
Viento: NO 26 km/h
Temperatura: 24°C
Rocío: 10°C
Humedad: 41%
Barómetro: 1013 hPa
Resumen: Despejado
Visibility: greater than 10 km
2021/07/25 21:30 LEMD 252130Z 31014KT CAVOK 24/10 Q1013 NOSIG
 
LEGR - Granada Airport, Spain
Distance from station: OSO 62km
Actualización: Sun, 25-Jul-2021 11:30pm CEST
Despejado
Despejado
 Viento del O
Viento: O 20 km/h
Temperatura: 27°C
Rocío: 12°C
Humedad: 39%
Barómetro: 1014 hPa
Resumen: Despejado
Visibility: greater than 10 km
2021/07/25 21:30 LEGR 252130Z 28011KT 250V320 CAVOK 27/12 Q1014
LEMG - Malaga (civ/Mil), Spain
Distance from station: OSO 227km
Actualización: Sun, 25-Jul-2021 11:30pm CEST
Despejado
Despejado
 Viento del ONO
Viento: ONO 17 km/h
Temperatura: 30°C
Indice Calor: 30°C
Rocío: 16°C
Humedad: 43%
Barómetro: 1010 hPa
Resumen: Despejado
Visibility: greater than 10 km
2021/07/25 21:30 LEMG 252130Z 30009KT CAVOK 30/16 Q1010 NOSIG
 
LEZL - Sevilla (civ/Mil, Spain
Distance from station: S 318km
Actualización: Sun, 25-Jul-2021 11:30pm CEST
Despejado
Despejado
 Viento del NO
Viento: NO 19 km/h
Temperatura: 28°C
Indice Calor: 28°C
Rocío: 15°C
Humedad: 45%
Barómetro: 1012 hPa
Resumen: Despejado
Visibility: greater than 10 km
2021/07/25 21:30 LEZL 252130Z 31010KT CAVOK 28/15 Q1012 NOSIG
LEVT - Vitoria, Spain
Distance from station: NO 226km
Actualización: Sun, 25-Jul-2021 11:30pm CEST
Parcialmente nuboso
Parcialmente nuboso
 Viento del N
Viento: N 7 km/h
Temperatura: 16°C
Rocío: 13°C
Humedad: 83%
Barómetro: 1017 hPa
Clouds: Parcialmente nuboso
Visibility: 10 km
Cloud details: Few Clouds 457 m
Parcialmente nuboso 945 m
2021/07/25 21:30 LEVT 252130Z 01004KT 330V040 9999 FEW015 SCT031 16/13 Q1017
 
LEBB - Bilbao/Sondica, Spain
Distance from station: NNO 235km
Actualización: Sun, 25-Jul-2021 11:30pm CEST
Parcialmente nuboso
Parcialmente nuboso
 Viento del NO
Viento: NO 4 km/h
Temperatura: 20°C
Rocío: 18°C
Humedad: 88%
Barómetro: 1016 hPa
Clouds: Parcialmente nuboso
Visibility: 10 km
Cloud details: Few Clouds 549 m
Parcialmente nuboso 1524 m
2021/07/25 21:30 LEBB 252130Z 32002KT 9999 FEW018 SCT050 20/18 Q1016 NOSIG
LESO - San Sebastian/Fu, Spain
Distance from station: N 231km
Actualización: Sun, 25-Jul-2021 11:30pm CEST
Muy nuboso
Muy nuboso
 Viento del varies
Viento: varies 4 km/h
Temperatura: 20°C
Rocío: 18°C
Humedad: 88%
Barómetro: 1016 hPa
Clouds: Muy nuboso
Visibility: 10 km
Cloud details: Few Clouds 579 m
Parcialmente nuboso 823 m
Muy nuboso 1036 m
2021/07/25 21:30 LESO 252130Z AUTO VRB02KT 9999 FEW019 SCT027 BKN034 20/18 Q1016
 
LEVD - Valladolid(Mil/C, Spain
Distance from station: ONO 239km
Actualización: Sun, 25-Jul-2021 11:30pm CEST
Despejado
Despejado
 Viento del O
Viento: O 7 km/h
Temperatura: 20°C
Rocío: 13°C
Humedad: 64%
Barómetro: 1015 hPa
Resumen: Despejado
Visibility: greater than 10 km
2021/07/25 21:30 LEVD 252130Z AUTO 28004KT 250V320 CAVOK 20/13 Q1015
LESA - Salamanca (civ/M, Spain
Distance from station: ONO 349km
Actualización: Sun, 25-Jul-2021 11:30pm CEST
Few Clouds
Few Clouds
 Viento del SO
Viento: SO 7 km/h
Temperatura: 18°C
Rocío: 15°C
Humedad: 83%
Barómetro: 1015 hPa
Clouds: Few Clouds
Visibility: 10 km
Cloud details: Few Clouds 1280 m
2021/07/25 21:30 LESA 252130Z AUTO 22004KT 9999 FEW042 18/15 Q1015
 
LEXJ - Santander/Paraya, Spain
Distance from station: NNO 247km
Actualización: Sun, 25-Jul-2021 11:30pm CEST
Cubierto
Cubierto
 Viento del OSO
Viento: OSO 4 km/h
Temperatura: 20°C
Rocío: 17°C
Humedad: 83%
Barómetro: 1016 hPa
Clouds: Cubierto
Visibility: 10 km
Cloud details: Few Clouds 1067 m
Cubierto 1463 m
2021/07/25 21:30 LEXJ 252130Z AUTO 25002KT 9999 FEW035 OVC048 20/17 Q1016
LEAS - Asturias/Aviles, Spain
Distance from station: NO 214km
Actualización: Sun, 25-Jul-2021 11:30pm CEST
Muy nuboso
Muy nuboso
 Viento del varies
Viento: varies 2 km/h
Temperatura: 18°C
Rocío: 17°C
Humedad: 94%
Barómetro: 1017 hPa
Clouds: Muy nuboso
Visibility: 10 km
Cloud details: Few Clouds 335 m
Muy nuboso 1341 m
2021/07/25 21:30 LEAS 252130Z VRB01KT 9999 FEW011 BKN044 18/17 Q1017 TEMPO BKN010
 
LECO - La Coruna/Alvedr, Spain
Distance from station: ONO 222km
Actualización: Sun, 25-Jul-2021 11:30pm CEST
Parcialmente nuboso
Parcialmente nuboso
 Viento del varies
Viento: varies 4 km/h
Temperatura: 18°C
Rocío: 18°C
Humedad: 100%
Barómetro: 1017 hPa
Clouds: Parcialmente nuboso
Visibility: 10 km
Cloud details: Parcialmente nuboso 305 m
2021/07/25 21:30 LECO 252130Z VRB02KT 9999 SCT010 18/18 Q1017 NOSIG
LEVX - Vigo/Peinador, Spain
Distance from station: O 214km
Actualización: Sun, 25-Jul-2021 11:30pm CEST
Despejado
Despejado
 Viento del NO
Viento: NO 6 km/h
Temperatura: 16°C
Rocío: 15°C
Humedad: 94%
Barómetro: 1016 hPa
Resumen: Despejado
Visibility: greater than 10 km
2021/07/25 21:30 LEVX 252130Z 32003KT 290V360 CAVOK 16/15 Q1016 NOSIG